Time;durP1;ratioP1;P1;durP2;ratioP2;P2;SDS_P1;SDS_P2;PMS_P1;PMS_P2;Temp;Humidity;BMP_temperature;BMP_pressure;BME280_temperature;BME280_humidity;BME280_pressure;Samples;Min_cycle;Max_cycle;Signal;HPM_P1;HPM_P2
2023/09/01 00:00:59;;;;;;;2.58;0.80;;;14.00;99.90;;;;;;4968872;28;20034;-89
2023/09/01 00:03:48;;;;;;;1.60;0.70;;;14.00;99.90;;;;;;4956799;28;20519;-89
2023/09/01 00:06:15;;;;;;;3.72;0.80;;;14.00;99.90;;;;;;4970434;28;20046;-89
2023/09/01 00:08:41;;;;;;;3.03;1.05;;;13.90;99.90;;;;;;4968276;28;20538;-88
2023/09/01 00:11:06;;;;;;;3.15;1.00;;;13.90;99.90;;;;;;4969827;28;20030;-88
2023/09/01 00:13:32;;;;;;;2.50;0.73;;;13.90;99.90;;;;;;4953560;28;20031;-89
2023/09/01 00:15:58;;;;;;;1.80;0.60;;;13.90;99.90;;;;;;4950227;28;20035;-89
2023/09/01 00:18:23;;;;;;;3.90;0.90;;;13.90;99.90;;;;;;4953841;28;20118;-88
2023/09/01 00:20:49;;;;;;;2.55;0.70;;;13.90;99.90;;;;;;4969216;28;20038;-88
2023/09/01 00:23:15;;;;;;;2.38;0.73;;;13.90;99.90;;;;;;4967732;28;20061;-88
2023/09/01 00:25:41;;;;;;;2.38;0.60;;;13.80;99.90;;;;;;4952801;28;20027;-88
2023/09/01 00:28:06;;;;;;;2.72;0.90;;;13.80;99.90;;;;;;4953452;28;20026;-89
2023/09/01 00:30:32;;;;;;;2.72;0.70;;;13.80;99.90;;;;;;4969553;28;20058;-89
2023/09/01 00:32:58;;;;;;;2.50;0.80;;;13.80;99.90;;;;;;4974844;28;20035;-88
2023/09/01 00:35:24;;;;;;;2.35;0.60;;;13.80;99.90;;;;;;4968855;28;20031;-89
2023/09/01 00:37:52;;;;;;;3.97;0.80;;;13.70;99.90;;;;;;4949601;28;20042;-89
2023/09/01 00:40:18;;;;;;;2.42;0.70;;;13.70;99.90;;;;;;4953454;28;20585;-87
2023/09/01 00:42:44;;;;;;;2.80;0.70;;;13.70;99.90;;;;;;4968617;28;20030;-89
2023/09/01 00:45:10;;;;;;;2.30;0.70;;;13.70;99.90;;;;;;4951858;28;20408;-88
2023/09/01 00:47:35;;;;;;;1.60;0.60;;;13.60;99.90;;;;;;4969935;28;20027;-89
2023/09/01 00:50:07;;;;;;;2.10;0.60;;;13.60;99.90;;;;;;4969355;28;20038;-88
2023/09/01 00:52:34;;;;;;;1.95;0.70;;;13.60;99.90;;;;;;4969088;28;20032;-89
2023/09/01 00:55:00;;;;;;;1.90;0.60;;;13.60;99.90;;;;;;4951914;28;20086;-88
2023/09/01 00:57:26;;;;;;;2.42;0.70;;;13.60;99.90;;;;;;4968868;28;20051;-88
2023/09/01 00:59:51;;;;;;;2.88;0.70;;;13.60;99.90;;;;;;4950861;28;20388;-88
2023/09/01 01:02:17;;;;;;;2.88;1.02;;;13.60;99.90;;;;;;4950651;28;20031;-88
2023/09/01 01:04:43;;;;;;;2.83;0.60;;;13.50;99.90;;;;;;4953328;28;20050;-89
2023/09/01 01:07:18;;;;;;;2.47;0.85;;;13.50;99.90;;;;;;4953034;28;20464;-88
2023/09/01 01:09:53;;;;;;;2.25;0.80;;;13.40;99.90;;;;;;4967766;28;20484;-88
2023/09/01 01:12:34;;;;;;;2.63;0.80;;;13.40;99.90;;;;;;4953680;28;20074;-88
2023/09/01 01:15:08;;;;;;;2.63;0.60;;;13.50;99.90;;;;;;4964989;28;20038;-88
2023/09/01 01:17:44;;;;;;;1.75;0.50;;;13.40;99.90;;;;;;4982681;28;20117;-89
2023/09/01 01:20:13;;;;;;;2.28;0.73;;;13.40;99.90;;;;;;4965488;28;20606;-89
2023/09/01 01:22:48;;;;;;;4.38;0.85;;;13.40;99.90;;;;;;4951512;28;20118;-89
2023/09/01 01:25:14;;;;;;;2.90;0.90;;;13.40;99.90;;;;;;4980998;28;20027;-89
2023/09/01 01:27:43;;;;;;;2.58;0.95;;;13.30;99.90;;;;;;4969304;28;20026;-89
2023/09/01 01:30:14;;;;;;;2.30;1.08;;;13.30;99.90;;;;;;4968019;28;20031;-88
2023/09/01 01:32:40;;;;;;;2.42;0.75;;;13.30;99.90;;;;;;4952382;28;20038;-88
2023/09/01 01:35:25;;;;;;;3.88;0.68;;;13.30;99.90;;;;;;4966306;28;20034;-88
2023/09/01 01:38:02;;;;;;;4.43;0.73;;;13.30;99.90;;;;;;4951727;28;20035;-89
2023/09/01 01:40:31;;;;;;;3.10;0.98;;;13.30;99.90;;;;;;4950334;28;20047;-89
2023/09/01 01:43:02;;;;;;;3.53;1.05;;;13.20;99.90;;;;;;4966833;28;20038;-87
2023/09/01 01:45:29;;;;;;;3.45;0.80;;;13.20;99.90;;;;;;4952694;28;20426;-88
2023/09/01 01:47:55;;;;;;;4.05;0.70;;;13.10;99.90;;;;;;4956139;28;20084;-89
2023/09/01 01:50:20;;;;;;;2.85;0.80;;;13.00;99.90;;;;;;4954906;28;20027;-89
2023/09/01 01:52:46;;;;;;;1.98;0.70;;;13.00;99.90;;;;;;4956466;28;20471;-87
2023/09/01 01:55:12;;;;;;;3.30;0.98;;;12.90;99.90;;;;;;4955042;28;20028;-89
2023/09/01 01:57:38;;;;;;;2.63;1.27;;;12.90;99.90;;;;;;4970170;28;20554;-89
2023/09/01 02:00:11;;;;;;;2.60;1.15;;;12.80;99.90;;;;;;4955955;28;20033;-88
2023/09/01 02:02:38;;;;;;;4.35;1.33;;;12.70;99.90;;;;;;4955619;28;20031;-88
2023/09/01 02:05:06;;;;;;;2.20;0.70;;;12.70;99.90;;;;;;4953499;28;20059;-89
2023/09/01 02:07:33;;;;;;;2.85;0.95;;;12.60;99.90;;;;;;4956299;28;20034;-90
2023/09/01 02:09:59;;;;;;;3.28;1.30;;;12.60;99.90;;;;;;4953966;28;20030;-88
2023/09/01 02:12:25;;;;;;;3.90;1.00;;;12.50;99.90;;;;;;4955549;28;20045;-88
2023/09/01 02:14:51;;;;;;;2.33;1.00;;;12.50;99.90;;;;;;4971926;28;20406;-89
2023/09/01 02:17:17;;;;;;;3.50;0.95;;;12.40;99.90;;;;;;4956334;28;20062;-89
2023/09/01 02:19:42;;;;;;;2.38;1.15;;;12.40;99.90;;;;;;4953374;28;20031;-89
2023/09/01 02:22:08;;;;;;;2.47;0.98;;;12.40;99.90;;;;;;4971640;28;20037;-89
2023/09/01 02:24:34;;;;;;;3.03;1.08;;;12.40;99.90;;;;;;4955462;28;20027;-87
2023/09/01 02:27:00;;;;;;;1.85;0.80;;;12.40;99.90;;;;;;4970747;28;20039;-89
2023/09/01 02:29:26;;;;;;;4.07;1.67;;;12.40;99.90;;;;;;4987133;28;20030;-87
2023/09/01 02:31:53;;;;;;;2.40;1.20;;;12.40;99.90;;;;;;4952921;28;20402;-89
2023/09/01 02:34:19;;;;;;;2.42;1.00;;;12.40;99.90;;;;;;4954461;28;20117;-88
2023/09/01 02:36:45;;;;;;;3.08;1.08;;;12.40;99.90;;;;;;4971142;28;20058;-89
2023/09/01 02:39:11;;;;;;;2.70;0.98;;;12.40;99.90;;;;;;4970465;28;20070;-90
2023/09/01 02:41:37;;;;;;;3.15;1.50;;;12.30;99.90;;;;;;4954911;28;20027;-90
2023/09/01 02:44:03;;;;;;;2.85;1.10;;;12.20;99.90;;;;;;4955546;28;20027;-88
2023/09/01 02:46:29;;;;;;;2.90;1.08;;;12.20;99.90;;;;;;4950969;28;20030;-88
2023/09/01 02:48:55;;;;;;;2.22;1.00;;;12.20;99.90;;;;;;4954461;28;20098;-90
2023/09/01 02:51:21;;;;;;;2.97;1.17;;;12.20;99.90;;;;;;4971596;28;20058;-89
2023/09/01 02:53:47;;;;;;;2.83;1.10;;;12.20;99.90;;;;;;4954413;28;20022;-89
2023/09/01 02:56:13;;;;;;;3.08;1.00;;;12.20;99.90;;;;;;4954022;28;20399;-89
2023/09/01 02:58:39;;;;;;;3.33;1.25;;;12.30;99.90;;;;;;4953807;28;20034;-89
2023/09/01 03:01:09;;;;;;;2.05;0.90;;;12.30;99.90;;;;;;4955105;28;20027;-89
2023/09/01 03:03:40;;;;;;;2.20;1.27;;;12.30;99.90;;;;;;4983869;28;20034;-90
2023/09/01 03:06:08;;;;;;;2.55;1.05;;;12.20;99.90;;;;;;4985418;28;20078;-90
2023/09/01 03:08:34;;;;;;;3.65;1.70;;;12.20;99.90;;;;;;4970194;28;20027;-88
2023/09/01 03:11:01;;;;;;;2.80;1.15;;;12.20;99.90;;;;;;4980344;28;20050;-89
2023/09/01 03:13:27;;;;;;;4.93;1.60;;;12.20;99.90;;;;;;4954116;28;20073;-90
2023/09/01 03:15:54;;;;;;;4.05;1.38;;;12.20;99.90;;;;;;4954344;28;20031;-90
2023/09/01 03:18:20;;;;;;;2.70;1.33;;;12.20;99.90;;;;;;4970126;28;20042;-90
2023/09/01 03:20:46;;;;;;;2.25;1.20;;;12.20;99.90;;;;;;4954555;28;20411;-90
2023/09/01 03:23:12;;;;;;;3.22;1.40;;;12.20;99.90;;;;;;4954246;28;20035;-90
2023/09/01 03:25:38;;;;;;;3.08;1.30;;;12.20;99.90;;;;;;4970056;28;20522;-89
2023/09/01 03:28:04;;;;;;;3.25;1.15;;;12.30;99.90;;;;;;4970685;28;20031;-89
2023/09/01 03:30:29;;;;;;;2.97;1.50;;;12.20;99.90;;;;;;4970703;28;20082;-88
2023/09/01 03:32:55;;;;;;;2.40;1.40;;;12.20;99.90;;;;;;4967375;28;20027;-89
2023/09/01 03:35:21;;;;;;;3.25;1.30;;;12.20;99.90;;;;;;4969455;28;20027;-89
2023/09/01 03:37:47;;;;;;;3.08;1.40;;;12.20;99.90;;;;;;4952888;28;20432;-89
2023/09/01 03:40:12;;;;;;;5.07;1.45;;;12.30;99.90;;;;;;4953451;28;20048;-89
2023/09/01 03:42:39;;;;;;;3.00;1.58;;;12.30;99.90;;;;;;4952684;28;20484;-88
2023/09/01 03:45:06;;;;;;;2.70;1.42;;;12.30;99.90;;;;;;4984534;28;20035;-89
2023/09/01 03:47:32;;;;;;;3.17;1.33;;;12.30;99.90;;;;;;4970028;28;20029;-89
2023/09/01 03:49:58;;;;;;;4.00;1.58;;;12.40;99.90;;;;;;4953148;28;22167;-88
2023/09/01 03:52:23;;;;;;;3.05;1.70;;;12.40;99.90;;;;;;4954333;28;20085;-89
2023/09/01 03:54:49;;;;;;;3.25;1.65;;;12.40;99.90;;;;;;4952632;28;20027;-89
2023/09/01 03:57:15;;;;;;;4.82;1.55;;;12.40;99.90;;;;;;4952592;28;20143;-88
2023/09/01 03:59:42;;;;;;;4.38;1.80;;;12.50;99.90;;;;;;4952338;28;20027;-89
2023/09/01 04:02:08;;;;;;;4.15;1.88;;;12.50;99.90;;;;;;4952898;28;20454;-88
2023/09/01 04:04:34;;;;;;;2.92;1.77;;;12.50;99.90;;;;;;4952862;28;20019;-89
2023/09/01 04:07:00;;;;;;;3.72;1.85;;;12.50;99.90;;;;;;4951935;28;20114;-89
2023/09/01 04:09:25;;;;;;;3.72;1.63;;;12.50;99.90;;;;;;4968597;28;20085;-89
2023/09/01 04:11:51;;;;;;;3.58;1.45;;;12.60;99.90;;;;;;4953631;28;20373;-89
2023/09/01 04:14:17;;;;;;;5.05;1.48;;;12.60;99.90;;;;;;4954218;28;20097;-89
2023/09/01 04:16:43;;;;;;;3.47;1.23;;;12.60;99.90;;;;;;4967092;28;20034;-89
2023/09/01 04:19:10;;;;;;;5.25;1.70;;;12.60;99.90;;;;;;4951301;28;20035;-89
2023/09/01 04:21:36;;;;;;;4.65;1.35;;;12.70;99.90;;;;;;4952453;28;20027;-89
2023/09/01 04:24:02;;;;;;;3.25;1.25;;;12.70;99.90;;;;;;4951326;28;20062;-90
2023/09/01 04:26:28;;;;;;;3.65;1.50;;;12.70;99.90;;;;;;4967398;28;20118;-89
2023/09/01 04:28:53;;;;;;;4.32;2.05;;;12.70;99.90;;;;;;4968804;28;20061;-89
2023/09/01 04:31:29;;;;;;;3.60;1.08;;;12.60;99.90;;;;;;4953648;28;20030;-88
2023/09/01 04:33:58;;;;;;;3.30;1.40;;;12.70;99.90;;;;;;4950695;28;20069;-89
2023/09/01 04:36:24;;;;;;;2.65;1.23;;;12.70;99.90;;;;;;4968256;28;20118;-89
2023/09/01 04:38:50;;;;;;;3.55;1.70;;;12.80;99.90;;;;;;4969007;28;20081;-89
2023/09/01 04:41:16;;;;;;;4.72;1.40;;;12.70;99.90;;;;;;4982566;28;20058;-89
2023/09/01 04:43:43;;;;;;;2.92;1.00;;;12.80;99.90;;;;;;4950175;29;20054;-88
2023/09/01 04:46:09;;;;;;;3.03;1.30;;;12.90;99.90;;;;;;4984493;28;20121;-89
2023/09/01 04:48:36;;;;;;;3.22;1.25;;;12.90;99.90;;;;;;4967257;28;20550;-89
2023/09/01 04:51:02;;;;;;;4.10;1.38;;;12.90;99.90;;;;;;4953220;28;20042;-88
2023/09/01 04:53:29;;;;;;;2.90;1.55;;;12.90;99.90;;;;;;4951737;28;20541;-89
2023/09/01 04:55:56;;;;;;;2.30;1.08;;;12.90;99.90;;;;;;4952926;28;20073;-90
2023/09/01 04:58:21;;;;;;;2.63;1.10;;;12.90;99.90;;;;;;4953144;28;20045;-88
2023/09/01 05:00:51;;;;;;;2.50;1.10;;;12.90;99.90;;;;;;4952598;28;20035;-88
2023/09/01 05:03:17;;;;;;;2.63;1.05;;;13.00;99.90;;;;;;4952305;28;20034;-89
2023/09/01 05:05:42;;;;;;;3.17;1.40;;;13.00;99.90;;;;;;4952004;28;20027;-89
2023/09/01 05:08:08;;;;;;;2.60;1.42;;;13.10;99.90;;;;;;4952051;28;20030;-89
2023/09/01 05:10:34;;;;;;;4.68;1.40;;;13.10;99.90;;;;;;4949263;28;20031;-89
2023/09/01 05:13:00;;;;;;;3.00;1.33;;;13.10;99.90;;;;;;4951546;28;20035;-89
2023/09/01 05:15:25;;;;;;;3.70;1.50;;;13.10;99.90;;;;;;4968292;28;20034;-90
2023/09/01 05:17:51;;;;;;;3.22;1.25;;;13.10;99.90;;;;;;4952980;28;20117;-89
2023/09/01 05:20:17;;;;;;;5.00;1.55;;;13.20;99.90;;;;;;4966728;28;20210;-88
2023/09/01 05:22:43;;;;;;;3.42;1.38;;;13.20;99.90;;;;;;4954582;28;20070;-89
2023/09/01 05:25:11;;;;;;;5.30;1.30;;;13.20;99.90;;;;;;4956859;28;20084;-89
2023/09/01 05:27:36;;;;;;;4.30;1.30;;;13.20;99.90;;;;;;4956691;28;20270;-89
2023/09/01 05:30:02;;;;;;;3.45;1.40;;;13.30;99.90;;;;;;4972449;28;20399;-89
2023/09/01 05:32:29;;;;;;;3.78;1.35;;;13.30;99.90;;;;;;4972089;28;20471;-89
2023/09/01 05:34:55;;;;;;;2.42;0.82;;;13.30;99.90;;;;;;4954966;28;20030;-90
2023/09/01 05:37:21;;;;;;;2.70;1.10;;;13.40;99.90;;;;;;4955630;28;20117;-89
2023/09/01 05:39:47;;;;;;;3.30;1.27;;;13.50;99.90;;;;;;4955929;28;20142;-89
2023/09/01 05:42:16;;;;;;;2.90;1.13;;;13.50;99.90;;;;;;4953885;28;20053;-89
2023/09/01 05:44:42;;;;;;;4.67;1.40;;;13.60;99.90;;;;;;4956761;28;20023;-89
2023/09/01 05:47:08;;;;;;;2.80;0.90;;;13.60;99.90;;;;;;4955257;28;20043;-89
2023/09/01 05:49:34;;;;;;;4.88;0.90;;;13.60;99.90;;;;;;4973020;28;20038;-90
2023/09/01 05:52:01;;;;;;;2.83;0.85;;;13.70;99.90;;;;;;4955827;28;20064;-89
2023/09/01 05:54:28;;;;;;;3.60;1.50;;;13.70;99.90;;;;;;4956175;28;20081;-87
2023/09/01 05:56:54;;;;;;;2.10;0.70;;;13.80;99.90;;;;;;4971503;28;20039;-89
2023/09/01 05:59:20;;;;;;;3.15;1.35;;;13.80;99.90;;;;;;4972428;28;20031;-89
2023/09/01 06:01:46;;;;;;;3.60;1.02;;;13.90;99.90;;;;;;4970004;28;20034;-89
2023/09/01 06:04:12;;;;;;;2.50;1.20;;;13.90;99.90;;;;;;4971371;28;20039;-89
2023/09/01 06:06:38;;;;;;;2.63;0.90;;;13.90;99.90;;;;;;4971396;28;20085;-89
2023/09/01 06:09:05;;;;;;;2.70;1.08;;;14.00;99.90;;;;;;4954059;28;20042;-89
2023/09/01 06:11:31;;;;;;;3.47;1.00;;;14.00;99.90;;;;;;4971275;28;20120;-89
2023/09/01 06:13:58;;;;;;;2.97;0.90;;;14.10;99.90;;;;;;4953571;28;20048;-88
2023/09/01 06:16:25;;;;;;;4.85;1.50;;;14.10;99.90;;;;;;4971448;28;20052;-90
2023/09/01 06:18:52;;;;;;;4.00;1.15;;;14.20;99.90;;;;;;4971576;28;20137;-89
2023/09/01 06:21:18;;;;;;;4.53;1.10;;;14.20;99.90;;;;;;4955477;28;20606;-88
2023/09/01 06:23:44;;;;;;;3.30;1.13;;;14.30;99.90;;;;;;4984858;28;20050;-89
2023/09/01 06:26:12;;;;;;;3.72;1.30;;;14.30;99.90;;;;;;4955187;28;20035;-89
2023/09/01 06:28:39;;;;;;;2.42;1.13;;;14.30;99.90;;;;;;4953832;28;20039;-88
2023/09/01 06:31:05;;;;;;;3.17;1.35;;;14.50;99.90;;;;;;4953781;28;20019;-89
2023/09/01 06:33:30;;;;;;;2.58;1.00;;;14.60;99.90;;;;;;4971053;28;20472;-88
2023/09/01 06:35:56;;;;;;;3.38;1.40;;;14.70;99.90;;;;;;4954029;28;20078;-88
2023/09/01 06:38:22;;;;;;;2.95;1.42;;;14.70;99.90;;;;;;4955153;28;20166;-90
2023/09/01 06:40:47;;;;;;;2.88;1.30;;;14.80;99.90;;;;;;4966142;28;20142;-89
2023/09/01 06:43:13;;;;;;;3.35;1.00;;;15.00;99.90;;;;;;4968677;28;20061;-89
2023/09/01 06:45:39;;;;;;;2.85;1.38;;;15.00;99.90;;;;;;4955423;28;20022;-88
2023/09/01 06:48:05;;;;;;;3.20;1.20;;;15.10;99.90;;;;;;4970653;28;20034;-90
2023/09/01 06:50:32;;;;;;;4.40;1.60;;;15.20;99.90;;;;;;4966878;28;20023;-89
2023/09/01 06:52:58;;;;;;;4.18;1.67;;;15.20;99.90;;;;;;4970983;28;20169;-90
2023/09/01 06:55:24;;;;;;;5.53;1.52;;;15.30;99.90;;;;;;4970601;28;20023;-89
2023/09/01 06:57:50;;;;;;;3.75;1.23;;;15.30;99.90;;;;;;4952919;28;20035;-89
2023/09/01 07:00:16;;;;;;;2.88;1.25;;;15.30;99.90;;;;;;4952843;28;20082;-88
2023/09/01 07:02:42;;;;;;;3.60;1.20;;;15.40;99.90;;;;;;4953836;28;20030;-86
2023/09/01 07:05:08;;;;;;;2.65;1.02;;;15.50;99.90;;;;;;4954149;28;20085;-87
2023/09/01 07:07:33;;;;;;;4.45;1.33;;;15.70;99.90;;;;;;4970690;28;20034;-89
2023/09/01 07:09:59;;;;;;;2.75;0.80;;;15.80;99.90;;;;;;4967861;28;20108;-85
2023/09/01 07:12:25;;;;;;;2.50;1.10;;;15.70;99.90;;;;;;4965939;28;20041;-88
2023/09/01 07:14:51;;;;;;;2.25;0.93;;;15.80;99.90;;;;;;4953492;28;20050;-88
2023/09/01 07:17:21;;;;;;;3.20;1.15;;;15.80;99.90;;;;;;4971415;28;20027;-89
2023/09/01 07:19:47;;;;;;;2.75;0.98;;;15.80;99.90;;;;;;4947512;28;20415;-88
2023/09/01 07:22:13;;;;;;;5.03;1.00;;;15.90;99.90;;;;;;4954538;28;20034;-86
2023/09/01 07:24:39;;;;;;;3.60;0.90;;;16.00;99.90;;;;;;4968238;28;20127;-85
2023/09/01 07:27:06;;;;;;;3.05;1.30;;;16.10;99.90;;;;;;4953489;28;20042;-88
2023/09/01 07:29:32;;;;;;;3.90;0.85;;;16.10;99.90;;;;;;4949944;28;20028;-88
2023/09/01 07:31:59;;;;;;;2.92;1.17;;;16.10;99.90;;;;;;4967537;28;20121;-91
2023/09/01 07:34:26;;;;;;;3.58;1.00;;;16.00;99.90;;;;;;4970477;28;20030;-89
2023/09/01 07:36:52;;;;;;;3.40;1.15;;;16.10;99.90;;;;;;4968778;28;20073;-85
2023/09/01 07:39:17;;;;;;;4.63;1.27;;;16.20;99.90;;;;;;4969023;28;20566;-87
2023/09/01 07:41:43;;;;;;;3.88;0.90;;;16.30;99.90;;;;;;4967479;28;20022;-86
2023/09/01 07:44:09;;;;;;;4.03;1.00;;;16.30;99.90;;;;;;4950731;28;20093;-87
2023/09/01 07:46:34;;;;;;;2.55;1.00;;;16.30;99.90;;;;;;4966817;28;20033;-88
2023/09/01 07:49:01;;;;;;;4.50;0.90;;;16.30;99.90;;;;;;4963822;28;20077;-86
2023/09/01 07:51:27;;;;;;;3.75;1.00;;;16.30;99.90;;;;;;4966521;28;20035;-84
2023/09/01 07:53:54;;;;;;;3.80;1.00;;;16.50;99.90;;;;;;4966166;28;20031;-90
2023/09/01 07:56:21;;;;;;;3.28;1.27;;;16.60;99.90;;;;;;4967322;28;20041;-91
2023/09/01 07:58:47;;;;;;;2.78;1.27;;;16.70;99.90;;;;;;4951399;28;20092;-86
2023/09/01 08:01:12;;;;;;;2.38;0.73;;;16.70;99.90;;;;;;4966096;28;20027;-88
2023/09/01 08:03:38;;;;;;;2.13;1.08;;;16.80;99.90;;;;;;4969024;28;20037;-84
2023/09/01 08:06:04;;;;;;;2.97;1.15;;;16.70;99.90;;;;;;4949733;28;20062;-90
2023/09/01 08:08:30;;;;;;;2.55;1.10;;;16.90;99.90;;;;;;4952126;28;20476;-88
2023/09/01 08:10:56;;;;;;;4.25;1.08;;;16.80;99.90;;;;;;4969962;28;20034;-89
2023/09/01 08:13:22;;;;;;;2.60;1.05;;;16.90;99.90;;;;;;4952488;28;20035;-85
2023/09/01 08:15:49;;;;;;;2.42;0.85;;;17.00;99.90;;;;;;4965896;28;20098;-88
2023/09/01 08:18:15;;;;;;;1.92;0.90;;;16.90;99.90;;;;;;4965381;28;20098;-88
2023/09/01 08:20:42;;;;;;;2.75;0.90;;;17.00;99.90;;;;;;4980993;28;20031;-88
2023/09/01 08:23:09;;;;;;;1.88;0.70;;;17.00;99.90;;;;;;4968413;28;20075;-90
2023/09/01 08:25:36;;;;;;;3.28;1.50;;;17.10;99.90;;;;;;4966638;28;20028;-85
2023/09/01 08:28:03;;;;;;;2.13;1.00;;;17.10;99.90;;;;;;4982577;28;20035;-89
2023/09/01 08:30:29;;;;;;;1.52;0.75;;;17.20;99.90;;;;;;4967907;28;20031;-87
2023/09/01 08:32:55;;;;;;;2.78;0.77;;;17.30;99.90;;;;;;4968063;28;20442;-89
2023/09/01 08:35:20;;;;;;;1.50;0.57;;;17.40;99.90;;;;;;4967638;28;20027;-90
2023/09/01 08:37:46;;;;;;;2.53;0.80;;;17.50;99.90;;;;;;4967993;28;20046;-93
2023/09/01 08:40:12;;;;;;;2.00;0.70;;;17.60;99.90;;;;;;4966833;28;21780;-89
2023/09/01 08:42:45;;;;;;;2.45;0.63;;;17.60;99.90;;;;;;4951452;28;20125;-90
2023/09/01 08:45:15;;;;;;;2.15;0.70;;;17.70;99.90;;;;;;4963335;28;20054;-92
2023/09/01 08:47:45;;;;;;;2.97;0.88;;;17.70;99.90;;;;;;4967490;28;20391;-89
2023/09/01 08:50:16;;;;;;;1.80;0.70;;;17.70;99.90;;;;;;4966942;28;20034;-89
2023/09/01 08:52:45;;;;;;;1.85;0.80;;;17.70;99.90;;;;;;4965159;28;20383;-88
2023/09/01 08:55:13;;;;;;;3.30;0.80;;;17.60;99.90;;;;;;4966942;28;20356;-88
2023/09/01 08:57:39;;;;;;;2.42;1.00;;;17.60;99.90;;;;;;4981643;28;20070;-88
2023/09/01 09:00:08;;;;;;;3.15;0.80;;;17.40;99.90;;;;;;4978739;28;20046;-86
2023/09/01 09:02:39;;;;;;;2.80;0.50;;;17.40;99.90;;;;;;4967964;28;20032;-89
2023/09/01 09:05:06;;;;;;;2.25;0.80;;;17.40;99.90;;;;;;4953164;28;20027;-90
2023/09/01 09:07:32;;;;;;;3.17;0.85;;;17.40;99.90;;;;;;4967539;28;20475;-91
2023/09/01 09:09:59;;;;;;;3.03;1.00;;;17.50;99.90;;;;;;4949208;28;20085;-85
2023/09/01 09:12:39;;;;;;;2.00;0.60;;;17.40;99.90;;;;;;4968920;28;20038;-87
2023/09/01 09:15:05;;;;;;;3.35;0.80;;;17.50;99.90;;;;;;4953558;28;20512;-91
2023/09/01 09:17:44;;;;;;;3.05;0.88;;;17.30;99.90;;;;;;4951792;28;20106;-91
2023/09/01 09:20:15;;;;;;;1.75;0.60;;;17.40;99.90;;;;;;4966304;28;20105;-91
2023/09/01 09:22:56;;;;;;;2.15;0.82;;;17.40;99.90;;;;;;4968325;28;20104;-89
2023/09/01 09:25:25;;;;;;;2.50;0.57;;;17.40;99.90;;;;;;4969400;28;20031;-87
2023/09/01 09:27:52;;;;;;;1.75;0.60;;;17.40;99.90;;;;;;4950046;28;20063;-89
2023/09/01 09:30:18;;;;;;;1.65;0.50;;;17.40;99.90;;;;;;4967356;28;20085;-89
2023/09/01 09:32:43;;;;;;;2.13;0.50;;;17.40;99.90;;;;;;4951623;28;20035;-84
2023/09/01 09:35:11;;;;;;;2.17;0.80;;;17.50;99.90;;;;;;4966537;28;20157;-89
2023/09/01 09:37:39;;;;;;;2.63;0.80;;;17.40;99.90;;;;;;4948775;28;20134;-85
2023/09/01 09:40:16;;;;;;;2.92;0.95;;;17.40;99.90;;;;;;4966069;28;20158;-90
2023/09/01 09:42:43;;;;;;;2.97;1.10;;;17.30;99.90;;;;;;4980409;28;20117;-87
2023/09/01 09:45:32;;;;;;;2.88;1.15;;;17.30;99.90;;;;;;4965770;28;20384;-90
2023/09/01 09:48:04;;;;;;;3.47;1.13;;;17.20;99.90;;;;;;4966629;28;20090;-90
2023/09/01 09:50:30;;;;;;;1.67;1.17;;;17.20;99.90;;;;;;4966454;28;20026;-87
2023/09/01 09:53:00;;;;;;;2.00;1.50;;;17.20;99.90;;;;;;4967860;28;20031;-87
2023/09/01 09:55:28;;;;;;;2.45;1.95;;;17.30;99.90;;;;;;4951331;28;20089;-91
2023/09/01 09:58:07;;;;;;;2.78;1.80;;;17.30;99.90;;;;;;4949614;28;20061;-85
2023/09/01 10:00:39;;;;;;;3.45;1.90;;;17.20;99.90;;;;;;4967771;28;20092;-89
2023/09/01 10:03:06;;;;;;;3.53;2.00;;;17.30;99.90;;;;;;4966720;28;20035;-91
2023/09/01 10:05:33;;;;;;;3.72;2.65;;;17.30;99.90;;;;;;4967534;28;20031;-88
2023/09/01 10:08:07;;;;;;;3.03;2.47;;;17.30;99.90;;;;;;4952909;28;20101;-89
2023/09/01 10:10:34;;;;;;;3.17;1.95;;;17.30;99.90;;;;;;4970954;28;20089;-90
2023/09/01 10:13:06;;;;;;;3.35;2.40;;;17.30;99.90;;;;;;4969165;28;20051;-90
2023/09/01 10:15:33;;;;;;;3.00;2.70;;;17.20;99.90;;;;;;4983269;28;20034;-91
2023/09/01 10:18:02;;;;;;;3.15;2.63;;;17.20;99.90;;;;;;4971026;28;20408;-91
2023/09/01 10:20:30;;;;;;;2.55;2.22;;;17.20;99.90;;;;;;4953042;28;20027;-87
2023/09/01 10:22:56;;;;;;;2.70;2.47;;;17.20;99.90;;;;;;4950692;28;20105;-92
2023/09/01 10:25:22;;;;;;;3.15;2.85;;;17.10;99.90;;;;;;4944192;28;20026;-87
2023/09/01 10:28:00;;;;;;;4.63;3.38;;;17.00;99.90;;;;;;4967768;28;21135;-86
2023/09/01 10:30:27;;;;;;;3.67;3.35;;;17.20;99.90;;;;;;4965999;28;20019;-89
2023/09/01 10:33:11;;;;;;;3.63;3.20;;;17.20;99.90;;;;;;4963343;28;20058;-88
2023/09/01 10:35:38;;;;;;;4.72;2.75;;;17.30;99.90;;;;;;4978324;28;20024;-90
2023/09/01 10:38:11;;;;;;;4.05;2.95;;;17.30;99.90;;;;;;4977634;28;20113;-91
2023/09/01 10:40:47;;;;;;;4.18;3.78;;;17.30;99.90;;;;;;4965943;28;20110;-90
2023/09/01 10:43:33;;;;;;;3.10;2.80;;;17.20;99.90;;;;;;4966591;28;20122;-86
2023/09/01 10:46:16;;;;;;;3.88;3.03;;;17.30;99.90;;;;;;4965442;28;20631;-86
2023/09/01 10:49:04;;;;;;;3.10;2.72;;;17.20;99.90;;;;;;4946587;28;20041;-85
2023/09/01 10:51:30;;;;;;;3.83;3.50;;;17.10;99.90;;;;;;4950549;28;20027;-87
2023/09/01 10:54:20;;;;;;;3.60;3.15;;;17.10;99.90;;;;;;4966101;28;20038;-91
2023/09/01 10:57:01;;;;;;;6.30;3.72;;;17.10;99.90;;;;;;4966767;28;20043;-92
2023/09/01 10:59:32;;;;;;;3.75;2.42;;;17.10;99.90;;;;;;4966717;28;20031;-85
2023/09/01 11:02:33;;;;;;;5.00;2.97;;;17.10;99.90;;;;;;4965456;28;20114;-92
2023/09/01 11:05:00;;;;;;;3.85;3.45;;;17.00;99.90;;;;;;4895842;29;20036;-88
2023/09/01 11:07:25;;;;;;;3.35;3.05;;;17.10;99.90;;;;;;4880185;29;20074;-85
2023/09/01 11:09:52;;;;;;;5.10;3.47;;;17.00;99.90;;;;;;4876459;29;20068;-85
2023/09/01 11:12:18;;;;;;;4.82;3.42;;;17.10;99.90;;;;;;4877486;29;20064;-85
2023/09/01 11:14:55;;;;;;;3.40;3.10;;;17.10;99.90;;;;;;4880807;29;20032;-90
2023/09/01 11:17:37;;;;;;;4.57;3.78;;;17.00;99.90;;;;;;4876052;29;20178;-88
2023/09/01 11:20:04;;;;;;;4.05;2.95;;;17.10;99.90;;;;;;4879403;29;20048;-90
2023/09/01 11:22:30;;;;;;;5.50;3.33;;;17.10;99.90;;;;;;4895495;29;20039;-91
2023/09/01 11:24:56;;;;;;;4.15;3.50;;;17.10;99.90;;;;;;4891665;29;20127;-85
2023/09/01 11:27:22;;;;;;;4.32;3.92;;;17.10;99.90;;;;;;4880815;29;20397;-88
2023/09/01 11:29:51;;;;;;;5.38;4.50;;;17.20;99.90;;;;;;4864129;29;20072;-90
2023/09/01 11:32:27;;;;;;;6.40;4.15;;;17.30;99.90;;;;;;4897263;29;20127;-89
2023/09/01 11:34:53;;;;;;;6.28;4.43;;;17.40;99.90;;;;;;4896031;29;20119;-91
2023/09/01 11:37:40;;;;;;;5.00;4.53;;;17.40;99.90;;;;;;4890405;29;20224;-87
2023/09/01 11:40:12;;;;;;;6.03;4.82;;;17.50;99.90;;;;;;4963651;28;20045;-90
2023/09/01 11:42:39;;;;;;;8.38;6.82;;;17.40;99.90;;;;;;4963571;28;20031;-90
2023/09/01 11:45:08;;;;;;;7.22;5.55;;;17.30;99.90;;;;;;4978383;28;20055;-86
2023/09/01 11:47:34;;;;;;;7.18;5.72;;;17.30;99.90;;;;;;4966064;28;20110;-90
2023/09/01 11:50:00;;;;;;;6.70;6.00;;;17.40;99.90;;;;;;4949744;28;20074;-88
2023/09/01 11:52:26;;;;;;;7.32;6.68;;;17.40;99.90;;;;;;4964522;28;20038;-92
2023/09/01 11:54:52;;;;;;;8.02;6.60;;;17.30;99.90;;;;;;4950623;28;20110;-86
2023/09/01 11:57:20;;;;;;;8.15;6.80;;;17.30;99.90;;;;;;4976314;28;20123;-89
2023/09/01 11:59:46;;;;;;;12.23;10.93;;;17.30;99.90;;;;;;4965000;28;20023;-90
2023/09/01 12:02:16;;;;;;;9.57;8.48;;;17.20;99.90;;;;;;4949179;28;20031;-87
2023/09/01 12:05:00;;;;;;;9.80;8.80;;;17.10;99.90;;;;;;4950406;28;20030;-89
2023/09/01 12:07:28;;;;;;;10.65;9.63;;;17.10;99.90;;;;;;4966296;28;20503;-89
2023/09/01 12:09:55;;;;;;;12.27;8.93;;;17.20;99.90;;;;;;4982102;28;20090;-93
2023/09/01 12:12:22;;;;;;;8.15;7.35;;;17.30;99.90;;;;;;4965608;28;20396;-92
2023/09/01 12:14:48;;;;;;;8.40;7.50;;;17.30;99.90;;;;;;4950117;28;20035;-91
2023/09/01 12:17:16;;;;;;;10.55;8.02;;;17.40;99.90;;;;;;4948937;28;20054;-93
2023/09/01 12:19:48;;;;;;;10.95;7.55;;;17.50;99.90;;;;;;4945271;28;20033;-87
2023/09/01 12:22:14;;;;;;;7.47;6.65;;;17.60;99.90;;;;;;4965329;28;20384;-86
2023/09/01 12:24:49;;;;;;;7.05;6.40;;;17.70;99.90;;;;;;4965172;28;20114;-92
2023/09/01 12:27:15;;;;;;;9.23;8.05;;;17.70;99.90;;;;;;4965744;28;20034;-90
2023/09/01 12:29:41;;;;;;;8.05;7.25;;;17.70;99.90;;;;;;4965116;28;20550;-91
2023/09/01 12:32:06;;;;;;;8.57;6.90;;;17.70;99.90;;;;;;4963007;28;20034;-87
2023/09/01 12:34:32;;;;;;;8.75;7.88;;;17.80;99.90;;;;;;4966247;28;20058;-87
2023/09/01 12:36:58;;;;;;;10.88;9.07;;;18.00;99.90;;;;;;4962855;28;20116;-89
2023/09/01 12:39:23;;;;;;;10.52;9.43;;;18.10;99.90;;;;;;4950559;28;20047;-93
2023/09/01 12:41:49;;;;;;;12.02;9.48;;;18.20;99.90;;;;;;4960772;28;20035;-86
2023/09/01 12:44:15;;;;;;;12.35;10.10;;;18.40;99.90;;;;;;4966124;28;20055;-90
2023/09/01 12:46:41;;;;;;;14.73;11.77;;;18.70;99.90;;;;;;4965654;28;20029;-94
2023/09/01 12:49:07;;;;;;;15.00;12.20;;;18.80;99.90;;;;;;4948464;28;20110;-90